Time;durP1;ratioP1;P1;durP2;ratioP2;P2;SDS_P1;SDS_P2;PMS_P1;PMS_P2;Temp;Humidity;BMP_temperature;BMP_pressure;BME280_temperature;BME280_humidity;BME280_pressure;Samples;Min_cycle;Max_cycle;Signal;HPM_P1;HPM_P2
2023/06/08 00:01:43;;;;;;;;;;;20.10;70.60;;;;;;5010151;28;92976;-45
2023/06/08 00:04:09;;;;;;;;;;;20.10;70.60;;;;;;5007240;28;92959;-45
2023/06/08 00:06:37;;;;;;;;;;;20.10;70.70;;;;;;5009651;28;93177;-46
2023/06/08 00:09:04;;;;;;;;;;;20.10;70.60;;;;;;5009486;28;92529;-45
2023/06/08 00:11:31;;;;;;;;;;;20.10;70.70;;;;;;5011020;28;92032;-45
2023/06/08 00:13:57;;;;;;;;;;;20.10;70.70;;;;;;5011772;28;93131;-46
2023/06/08 00:16:22;;;;;;;;;;;20.00;70.50;;;;;;5010674;28;92481;-45
2023/06/08 00:18:49;;;;;;;;;;;20.00;70.70;;;;;;5011135;28;92505;-45
2023/06/08 00:21:15;;;;;;;;;;;20.00;70.50;;;;;;5010473;28;92434;-45
2023/06/08 00:23:41;;;;;;;;;;;20.00;70.70;;;;;;5015296;28;91976;-46
2023/06/08 00:26:06;;;;;;;;;;;20.00;70.60;;;;;;5010264;28;94254;-45
2023/06/08 00:28:32;;;;;;;;;;;20.00;70.60;;;;;;5009374;28;93130;-46
2023/06/08 00:30:58;;;;;;;;;;;20.00;70.50;;;;;;5012554;28;93624;-46
2023/06/08 00:33:23;;;;;;;;;;;19.90;70.60;;;;;;5010111;28;93270;-45
2023/06/08 00:35:49;;;;;;;;;;;19.90;70.60;;;;;;5009704;28;92160;-45
2023/06/08 00:38:15;;;;;;;;;;;19.90;70.70;;;;;;5012469;28;92457;-45
2023/06/08 00:40:42;;;;;;;;;;;19.90;70.70;;;;;;5009524;28;92254;-46
2023/06/08 00:43:08;;;;;;;;;;;19.90;70.70;;;;;;5010411;28;92119;-45
2023/06/08 00:45:33;;;;;;;;;;;19.80;70.70;;;;;;5015266;28;91505;-45
2023/06/08 00:47:59;;;;;;;;;;;19.90;70.70;;;;;;5009511;28;92220;-45
2023/06/08 00:50:25;;;;;;;;;;;19.90;70.60;;;;;;5011797;28;92896;-45
2023/06/08 00:52:50;;;;;;;;;;;19.80;70.60;;;;;;5007923;28;94084;-45
2023/06/08 00:55:19;;;;;;;;;;;19.80;70.70;;;;;;5012300;28;92234;-46
2023/06/08 00:57:47;;;;;;;;;;;19.80;70.60;;;;;;5010485;28;92282;-45
2023/06/08 01:00:13;;;;;;;;;;;19.80;70.60;;;;;;5008816;28;93141;-45
2023/06/08 01:02:39;;;;;;;;;;;19.80;70.70;;;;;;5011984;28;92919;-45
2023/06/08 01:05:05;;;;;;;;;;;19.80;70.70;;;;;;5010342;28;92541;-45
2023/06/08 01:07:34;;;;;;;;;;;19.70;70.50;;;;;;5013262;28;93016;-45
2023/06/08 01:10:10;;;;;;;;;;;19.80;70.70;;;;;;5009796;28;92089;-45
2023/06/08 01:12:45;;;;;;;;;;;19.70;70.50;;;;;;5008380;28;93216;-45
2023/06/08 01:15:18;;;;;;;;;;;19.70;70.70;;;;;;5010197;28;92277;-46
2023/06/08 01:17:57;;;;;;;;;;;19.70;70.60;;;;;;5008190;28;93818;-45
2023/06/08 01:20:29;;;;;;;;;;;19.70;70.60;;;;;;5008414;28;93241;-45
2023/06/08 01:23:04;;;;;;;;;;;19.70;70.50;;;;;;5010327;28;92195;-45
2023/06/08 01:25:30;;;;;;;;;;;19.70;70.60;;;;;;5008764;28;92570;-46
2023/06/08 01:28:15;;;;;;;;;;;19.70;70.60;;;;;;5010665;28;93208;-46
2023/06/08 01:30:42;;;;;;;;;;;19.60;70.60;;;;;;5012523;28;92051;-45
2023/06/08 01:33:09;;;;;;;;;;;19.60;70.70;;;;;;5009452;28;93338;-45
2023/06/08 01:35:35;;;;;;;;;;;19.60;70.50;;;;;;5011993;28;91418;-45
2023/06/08 01:38:05;;;;;;;;;;;19.60;70.60;;;;;;5009281;28;92670;-45
2023/06/08 01:40:37;;;;;;;;;;;19.60;70.60;;;;;;5008704;28;93143;-45
2023/06/08 01:43:06;;;;;;;;;;;19.50;70.60;;;;;;5007920;28;93201;-46
2023/06/08 01:45:36;;;;;;;;;;;19.50;70.70;;;;;;5009271;28;93392;-46
2023/06/08 01:48:03;;;;;;;;;;;19.50;70.70;;;;;;5010488;28;93078;-46
2023/06/08 01:50:29;;;;;;;;;;;19.50;70.70;;;;;;5012023;28;92646;-45
2023/06/08 01:52:55;;;;;;;;;;;19.50;70.70;;;;;;5007403;28;93200;-46
2023/06/08 01:55:22;;;;;;;;;;;19.50;70.80;;;;;;5008237;28;92220;-45
2023/06/08 01:57:48;;;;;;;;;;;19.50;70.60;;;;;;5010422;28;92388;-45
2023/06/08 02:00:15;;;;;;;;;;;19.50;70.60;;;;;;5010251;28;92594;-47
2023/06/08 02:02:40;;;;;;;;;;;19.50;70.60;;;;;;5008214;28;92107;-45
2023/06/08 02:05:08;;;;;;;;;;;19.40;70.60;;;;;;5010663;28;92584;-45
2023/06/08 02:07:33;;;;;;;;;;;19.50;70.60;;;;;;5008032;28;93966;-46
2023/06/08 02:09:59;;;;;;;;;;;19.40;70.60;;;;;;5008283;28;92452;-45
2023/06/08 02:12:25;;;;;;;;;;;19.40;70.60;;;;;;5013266;28;92035;-46
2023/06/08 02:14:50;;;;;;;;;;;19.40;70.50;;;;;;5009429;28;92188;-46
2023/06/08 02:17:27;;;;;;;;;;;19.40;70.50;;;;;;5008321;28;92405;-45
2023/06/08 02:19:55;;;;;;;;;;;19.40;70.70;;;;;;5008935;28;93174;-46
2023/06/08 02:22:21;;;;;;;;;;;19.40;70.50;;;;;;5007129;28;93939;-48
2023/06/08 02:24:47;;;;;;;;;;;19.30;70.50;;;;;;5011130;28;92589;-46
2023/06/08 02:27:13;;;;;;;;;;;19.40;70.60;;;;;;5008800;28;92331;-45
2023/06/08 02:29:39;;;;;;;;;;;19.30;70.60;;;;;;5007784;28;92187;-45
2023/06/08 02:32:05;;;;;;;;;;;19.30;70.40;;;;;;5009225;28;92990;-47
2023/06/08 02:34:31;;;;;;;;;;;19.30;70.70;;;;;;5011370;28;92982;-45
2023/06/08 02:36:57;;;;;;;;;;;19.30;70.60;;;;;;5009893;28;92343;-45
2023/06/08 02:39:23;;;;;;;;;;;19.30;70.70;;;;;;5006885;28;93124;-45
2023/06/08 02:41:48;;;;;;;;;;;19.30;70.60;;;;;;5010497;28;92193;-46
2023/06/08 02:44:14;;;;;;;;;;;19.30;70.50;;;;;;5009554;28;92078;-46
2023/06/08 02:46:39;;;;;;;;;;;19.30;70.60;;;;;;5007175;28;92992;-45
2023/06/08 02:49:05;;;;;;;;;;;19.20;70.50;;;;;;5007959;28;91396;-45
2023/06/08 02:51:31;;;;;;;;;;;19.20;70.50;;;;;;5008787;28;92217;-46
2023/06/08 02:53:56;;;;;;;;;;;19.30;70.50;;;;;;5008514;28;93205;-45
2023/06/08 02:56:24;;;;;;;;;;;19.20;70.40;;;;;;5010886;28;93161;-45
2023/06/08 02:58:49;;;;;;;;;;;19.20;70.50;;;;;;5004190;28;95421;-46
2023/06/08 03:01:15;;;;;;;;;;;19.20;70.40;;;;;;5007389;28;92204;-45
2023/06/08 03:03:45;;;;;;;;;;;19.20;70.60;;;;;;5009771;28;94286;-45
2023/06/08 03:06:12;;;;;;;;;;;19.20;70.60;;;;;;5008678;28;93328;-46
2023/06/08 03:08:38;;;;;;;;;;;19.20;70.50;;;;;;5010330;28;92828;-45
2023/06/08 03:11:04;;;;;;;;;;;19.20;70.50;;;;;;5007657;28;93837;-45
2023/06/08 03:13:29;;;;;;;;;;;19.20;70.50;;;;;;5005279;28;92343;-45
2023/06/08 03:15:55;;;;;;;;;;;19.10;70.50;;;;;;5006387;28;92130;-46
2023/06/08 03:18:22;;;;;;;;;;;19.10;70.50;;;;;;5012568;28;93135;-45
2023/06/08 03:20:51;;;;;;;;;;;19.10;70.50;;;;;;4999671;28;93140;-46
2023/06/08 03:23:20;;;;;;;;;;;19.10;70.60;;;;;;5014052;28;92987;-46
2023/06/08 03:25:48;;;;;;;;;;;19.10;70.50;;;;;;5006639;28;93183;-45
2023/06/08 03:28:14;;;;;;;;;;;19.10;70.50;;;;;;5008905;28;92121;-45
2023/06/08 03:30:40;;;;;;;;;;;19.10;70.40;;;;;;5005941;28;92350;-45
2023/06/08 03:33:06;;;;;;;;;;;19.00;70.40;;;;;;5004732;28;93166;-45
2023/06/08 03:35:32;;;;;;;;;;;19.00;70.30;;;;;;5008939;28;93247;-45
2023/06/08 03:37:57;;;;;;;;;;;19.00;70.50;;;;;;5010944;28;91427;-45
2023/06/08 03:40:23;;;;;;;;;;;19.00;71.00;;;;;;5009999;28;92311;-45
2023/06/08 03:42:50;;;;;;;;;;;19.00;70.50;;;;;;5007701;28;93258;-45
2023/06/08 03:45:19;;;;;;;;;;;19.00;70.50;;;;;;5010891;28;93939;-45
2023/06/08 03:47:45;;;;;;;;;;;19.00;70.50;;;;;;5011001;28;93367;-45
2023/06/08 03:50:13;;;;;;;;;;;18.90;70.50;;;;;;5013435;28;92402;-45
2023/06/08 03:52:39;;;;;;;;;;;18.90;70.40;;;;;;5009059;28;93021;-45
2023/06/08 03:55:06;;;;;;;;;;;18.90;70.50;;;;;;5010322;28;92194;-45
2023/06/08 03:57:31;;;;;;;;;;;18.90;70.50;;;;;;5008822;28;94077;-46
2023/06/08 03:59:57;;;;;;;;;;;19.00;70.40;;;;;;5012147;28;92957;-45
2023/06/08 04:02:22;;;;;;;;;;;19.00;70.40;;;;;;5009541;28;91860;-45
2023/06/08 04:04:48;;;;;;;;;;;18.90;70.40;;;;;;5011433;28;93091;-45
2023/06/08 04:07:13;;;;;;;;;;;18.90;70.40;;;;;;5012014;28;92258;-45
2023/06/08 04:09:39;;;;;;;;;;;18.90;70.40;;;;;;5007170;28;93997;-45
2023/06/08 04:12:05;;;;;;;;;;;18.90;70.40;;;;;;5008859;28;93175;-46
2023/06/08 04:14:31;;;;;;;;;;;18.90;70.50;;;;;;5010631;28;92234;-46
2023/06/08 04:16:56;;;;;;;;;;;18.90;70.50;;;;;;5014161;28;93242;-46
2023/06/08 04:19:22;;;;;;;;;;;18.90;70.40;;;;;;5007697;28;92991;-45
2023/06/08 04:21:48;;;;;;;;;;;18.90;70.40;;;;;;5011972;28;92165;-45
2023/06/08 04:24:13;;;;;;;;;;;18.90;70.40;;;;;;5009750;28;93010;-45
2023/06/08 04:26:39;;;;;;;;;;;18.90;70.30;;;;;;5007090;28;91357;-45
2023/06/08 04:29:05;;;;;;;;;;;18.90;70.40;;;;;;5012932;28;92259;-45
2023/06/08 04:31:30;;;;;;;;;;;18.90;70.30;;;;;;5008214;28;93038;-45
2023/06/08 04:33:56;;;;;;;;;;;18.90;70.30;;;;;;5011431;28;94200;-45
2023/06/08 04:36:22;;;;;;;;;;;18.90;70.30;;;;;;5012098;28;94197;-45
2023/06/08 04:38:47;;;;;;;;;;;18.90;70.30;;;;;;5005007;28;92391;-46
2023/06/08 04:41:14;;;;;;;;;;;18.90;70.40;;;;;;5011263;28;92131;-45
2023/06/08 04:43:40;;;;;;;;;;;18.90;70.40;;;;;;5011171;28;92932;-46
2023/06/08 04:46:07;;;;;;;;;;;18.90;70.40;;;;;;5006780;28;92408;-45
2023/06/08 04:48:33;;;;;;;;;;;18.80;70.30;;;;;;5005797;28;93690;-45
2023/06/08 04:51:01;;;;;;;;;;;18.90;70.40;;;;;;5009395;28;92311;-45
2023/06/08 04:53:33;;;;;;;;;;;18.90;70.30;;;;;;5011851;28;92224;-45
2023/06/08 04:56:01;;;;;;;;;;;18.90;70.40;;;;;;5006720;28;92429;-45
2023/06/08 04:58:27;;;;;;;;;;;18.90;70.40;;;;;;5009602;28;94571;-45
2023/06/08 05:00:53;;;;;;;;;;;18.90;70.40;;;;;;5010491;28;92161;-45
2023/06/08 05:03:19;;;;;;;;;;;18.90;70.30;;;;;;5009248;28;92579;-46
2023/06/08 05:05:45;;;;;;;;;;;18.90;70.40;;;;;;5012164;28;93083;-46
2023/06/08 05:08:10;;;;;;;;;;;18.80;70.40;;;;;;5008005;28;92380;-45
2023/06/08 05:10:36;;;;;;;;;;;18.80;70.50;;;;;;5010507;28;93337;-45
2023/06/08 05:13:01;;;;;;;;;;;18.80;70.60;;;;;;5005731;28;92444;-45
2023/06/08 05:15:28;;;;;;;;;;;18.90;70.60;;;;;;5004927;28;92593;-45
2023/06/08 05:17:55;;;;;;;;;;;18.80;71.10;;;;;;5009709;28;94365;-45
2023/06/08 05:20:22;;;;;;;;;;;18.80;70.70;;;;;;5008107;28;92193;-45
2023/06/08 05:22:48;;;;;;;;;;;18.80;70.60;;;;;;5009584;28;93111;-46
2023/06/08 05:25:13;;;;;;;;;;;18.90;70.60;;;;;;5008909;28;93265;-46
2023/06/08 05:27:39;;;;;;;;;;;18.90;70.70;;;;;;5014224;28;92189;-46
2023/06/08 05:30:05;;;;;;;;;;;18.90;70.60;;;;;;5009485;28;93589;-46
2023/06/08 05:32:30;;;;;;;;;;;18.90;70.60;;;;;;5009205;28;92285;-46
2023/06/08 05:34:56;;;;;;;;;;;18.90;70.70;;;;;;5006993;28;93375;-45
2023/06/08 05:37:22;;;;;;;;;;;18.90;70.80;;;;;;5010616;28;95199;-46
2023/06/08 05:39:47;;;;;;;;;;;18.90;70.80;;;;;;5011927;28;91458;-45
2023/06/08 05:42:13;;;;;;;;;;;18.90;70.80;;;;;;5008850;28;92206;-45
2023/06/08 05:44:38;;;;;;;;;;;18.90;70.80;;;;;;5005505;28;93852;-45
2023/06/08 05:47:04;;;;;;;;;;;18.90;70.80;;;;;;5010727;28;93143;-46
2023/06/08 05:49:29;;;;;;;;;;;18.90;70.80;;;;;;4994956;28;95059;-46
2023/06/08 05:51:55;;;;;;;;;;;18.90;70.90;;;;;;5007574;28;93997;-46
2023/06/08 05:54:21;;;;;;;;;;;18.90;70.90;;;;;;5007242;28;92478;-47
2023/06/08 05:56:46;;;;;;;;;;;18.90;70.80;;;;;;5010174;28;93109;-45
2023/06/08 05:59:12;;;;;;;;;;;18.90;71.00;;;;;;5012222;28;93271;-46
2023/06/08 06:01:37;;;;;;;;;;;18.90;70.90;;;;;;5004009;28;93083;-46
2023/06/08 06:04:03;;;;;;;;;;;18.90;71.00;;;;;;5006689;28;93068;-47
2023/06/08 06:06:30;;;;;;;;;;;18.90;70.90;;;;;;5009825;28;92247;-46
2023/06/08 06:08:55;;;;;;;;;;;18.90;71.00;;;;;;5013292;28;92277;-46
2023/06/08 06:11:22;;;;;;;;;;;18.90;71.10;;;;;;5009500;28;95038;-45
2023/06/08 06:13:47;;;;;;;;;;;18.90;71.20;;;;;;5007307;28;95593;-45
2023/06/08 06:16:13;;;;;;;;;;;18.90;71.10;;;;;;5008457;28;92706;-47
2023/06/08 06:18:38;;;;;;;;;;;18.90;71.10;;;;;;5008327;28;92291;-45
2023/06/08 06:21:04;;;;;;;;;;;18.90;71.10;;;;;;5008484;28;92402;-46
2023/06/08 06:23:29;;;;;;;;;;;18.90;71.10;;;;;;5009072;28;93068;-47
2023/06/08 06:25:55;;;;;;;;;;;18.90;71.20;;;;;;5008279;28;92190;-45
2023/06/08 06:28:20;;;;;;;;;;;18.90;71.10;;;;;;5006514;28;92232;-45
2023/06/08 06:30:46;;;;;;;;;;;18.90;71.80;;;;;;5007664;28;93240;-46
2023/06/08 06:33:11;;;;;;;;;;;18.90;71.20;;;;;;5009866;28;92545;-47
2023/06/08 06:35:37;;;;;;;;;;;18.90;71.20;;;;;;5005618;28;94130;-46
2023/06/08 06:38:03;;;;;;;;;;;18.90;71.30;;;;;;5009482;28;93233;-46
2023/06/08 06:40:28;;;;;;;;;;;18.90;71.30;;;;;;5005723;28;94123;-46
2023/06/08 06:42:53;;;;;;;;;;;18.90;71.40;;;;;;5007447;28;92184;-47
2023/06/08 06:45:19;;;;;;;;;;;18.90;71.50;;;;;;5010413;28;92213;-45
2023/06/08 06:47:45;;;;;;;;;;;18.90;71.50;;;;;;5008513;28;93907;-45
2023/06/08 06:50:10;;;;;;;;;;;18.90;71.40;;;;;;5007639;28;93422;-45
2023/06/08 06:52:36;;;;;;;;;;;18.90;71.40;;;;;;5014096;28;92374;-46
2023/06/08 06:55:02;;;;;;;;;;;18.90;71.40;;;;;;5007450;28;93157;-46
2023/06/08 06:57:31;;;;;;;;;;;18.90;71.40;;;;;;5008748;28;92527;-46
2023/06/08 06:59:57;;;;;;;;;;;18.90;71.40;;;;;;5009110;28;93063;-46
2023/06/08 07:02:23;;;;;;;;;;;18.90;71.50;;;;;;5009073;28;93346;-46
2023/06/08 07:04:52;;;;;;;;;;;18.90;71.60;;;;;;5009071;28;92215;-46
2023/06/08 07:07:18;;;;;;;;;;;18.90;71.40;;;;;;5007252;28;92447;-46
2023/06/08 07:09:43;;;;;;;;;;;18.90;71.40;;;;;;5009141;28;93237;-46
2023/06/08 07:12:09;;;;;;;;;;;18.90;71.60;;;;;;5009033;28;92165;-46
2023/06/08 07:14:35;;;;;;;;;;;18.90;71.60;;;;;;5011882;28;92706;-46
2023/06/08 07:17:00;;;;;;;;;;;19.00;72.10;;;;;;5011061;28;92011;-46
2023/06/08 07:19:26;;;;;;;;;;;18.90;71.60;;;;;;5015185;28;92264;-46
2023/06/08 07:21:52;;;;;;;;;;;18.90;71.60;;;;;;5015911;28;92989;-47
2023/06/08 07:24:18;;;;;;;;;;;19.00;71.90;;;;;;5013121;28;93079;-46
2023/06/08 07:26:45;;;;;;;;;;;19.00;71.50;;;;;;5015763;28;93289;-46
2023/06/08 07:29:13;;;;;;;;;;;19.00;72.10;;;;;;5015142;28;94517;-46
2023/06/08 07:31:39;;;;;;;;;;;18.90;71.90;;;;;;5014702;28;92481;-46
2023/06/08 07:34:06;;;;;;;;;;;18.90;72.40;;;;;;5014645;28;92445;-45
2023/06/08 07:36:32;;;;;;;;;;;18.90;72.30;;;;;;5016740;28;93192;-46
2023/06/08 07:38:58;;;;;;;;;;;18.90;72.40;;;;;;5016267;28;92335;-46
2023/06/08 07:41:26;;;;;;;;;;;18.90;72.50;;;;;;4996164;28;93871;-45
2023/06/08 07:43:51;;;;;;;;;;;18.90;72.10;;;;;;5014184;28;92310;-46
2023/06/08 07:46:17;;;;;;;;;;;19.00;71.80;;;;;;5014667;28;92373;-45
2023/06/08 07:48:42;;;;;;;;;;;19.00;72.30;;;;;;5014763;28;94198;-45
2023/06/08 07:51:08;;;;;;;;;;;19.00;72.00;;;;;;5014942;28;92168;-46
2023/06/08 07:53:37;;;;;;;;;;;18.90;72.20;;;;;;5013534;28;92302;-46
2023/06/08 07:56:03;;;;;;;;;;;19.00;71.80;;;;;;5013095;28;92832;-46
2023/06/08 07:58:29;;;;;;;;;;;19.00;71.70;;;;;;5017570;28;92080;-46
2023/06/08 08:00:55;;;;;;;;;;;19.00;71.70;;;;;;5015157;28;92840;-46
2023/06/08 08:03:21;;;;;;;;;;;19.00;72.00;;;;;;5013367;28;92787;-45
2023/06/08 08:05:48;;;;;;;;;;;19.00;72.00;;;;;;5015493;28;92057;-45
2023/06/08 08:08:14;;;;;;;;;;;19.00;72.10;;;;;;5015113;28;93073;-46
2023/06/08 08:10:39;;;;;;;;;;;19.00;72.30;;;;;;5013337;28;92192;-45
2023/06/08 08:13:05;;;;;;;;;;;19.00;71.90;;;;;;5013924;28;93803;-45
2023/06/08 08:15:31;;;;;;;;;;;19.00;72.00;;;;;;5014729;28;93116;-46
2023/06/08 08:17:56;;;;;;;;;;;19.00;71.80;;;;;;5016131;28;92252;-46
2023/06/08 08:20:22;;;;;;;;;;;19.00;71.70;;;;;;5014744;28;92241;-46
2023/06/08 08:22:48;;;;;;;;;;;19.00;72.00;;;;;;5014909;28;92058;-46
2023/06/08 08:25:13;;;;;;;;;;;19.10;71.80;;;;;;5013371;28;92512;-45
2023/06/08 08:27:39;;;;;;;;;;;19.10;72.00;;;;;;5011773;28;93264;-45
2023/06/08 08:30:04;;;;;;;;;;;19.10;71.70;;;;;;5011400;28;91425;-45
2023/06/08 08:32:30;;;;;;;;;;;19.10;72.00;;;;;;5011046;28;92064;-46
2023/06/08 08:34:56;;;;;;;;;;;19.20;72.00;;;;;;5008860;28;94378;-46
2023/06/08 08:37:22;;;;;;;;;;;19.10;72.00;;;;;;5011213;28;93095;-45
2023/06/08 08:39:48;;;;;;;;;;;19.20;72.30;;;;;;5014029;28;93725;-47
2023/06/08 08:42:17;;;;;;;;;;;19.10;72.10;;;;;;5009592;28;92176;-46
2023/06/08 08:44:44;;;;;;;;;;;19.10;71.90;;;;;;5011509;28;92604;-45
2023/06/08 08:47:13;;;;;;;;;;;19.20;72.20;;;;;;5010165;28;92990;-45
2023/06/08 08:49:42;;;;;;;;;;;19.20;72.00;;;;;;5011810;28;92246;-46
2023/06/08 08:52:10;;;;;;;;;;;19.20;72.80;;;;;;5010620;28;92329;-47
2023/06/08 08:54:38;;;;;;;;;;;19.20;72.00;;;;;;5009291;28;92310;-46
2023/06/08 08:57:06;;;;;;;;;;;19.20;71.90;;;;;;5011491;28;92204;-48
2023/06/08 08:59:32;;;;;;;;;;;19.20;72.20;;;;;;5011225;28;93026;-46
2023/06/08 09:01:58;;;;;;;;;;;19.30;72.10;;;;;;5012371;28;93986;-46
2023/06/08 09:04:23;;;;;;;;;;;19.30;72.20;;;;;;5009706;28;93407;-47
2023/06/08 09:06:50;;;;;;;;;;;19.30;72.10;;;;;;5009855;28;93110;-46
2023/06/08 09:09:15;;;;;;;;;;;19.30;72.20;;;;;;5012028;28;92057;-45
2023/06/08 09:11:57;;;;;;;;;;;19.30;72.20;;;;;;5009132;28;92543;-45
2023/06/08 09:14:23;;;;;;;;;;;19.30;72.30;;;;;;5007866;28;93117;-46
2023/06/08 09:16:49;;;;;;;;;;;19.30;72.30;;;;;;5012353;28;92217;-45
2023/06/08 09:19:14;;;;;;;;;;;19.30;72.20;;;;;;5011366;28;92412;-45
2023/06/08 09:21:44;;;;;;;;;;;19.40;72.30;;;;;;5008528;28;92789;-47
2023/06/08 09:24:14;;;;;;;;;;;19.40;72.30;;;;;;5013926;28;92133;-46
2023/06/08 09:26:45;;;;;;;;;;;19.40;72.30;;;;;;5010088;28;93225;-45
2023/06/08 09:29:12;;;;;;;;;;;19.40;72.20;;;;;;5009141;28;92061;-46
2023/06/08 09:31:48;;;;;;;;;;;19.40;72.30;;;;;;5012103;28;92739;-45
2023/06/08 09:34:13;;;;;;;;;;;19.40;72.20;;;;;;5008773;28;93142;-46
2023/06/08 09:36:39;;;;;;;;;;;19.40;72.30;;;;;;5010016;28;92161;-47
2023/06/08 09:39:08;;;;;;;;;;;19.40;72.30;;;;;;5011331;28;92678;-46
2023/06/08 09:41:36;;;;;;;;;;;19.50;72.30;;;;;;5008103;28;93015;-46
2023/06/08 09:44:15;;;;;;;;;;;19.50;72.30;;;;;;5009785;28;91370;-46
2023/06/08 09:46:45;;;;;;;;;;;19.50;72.20;;;;;;5011728;28;92552;-46
2023/06/08 09:49:13;;;;;;;;;;;19.50;72.20;;;;;;5008571;28;92143;-45
2023/06/08 09:51:40;;;;;;;;;;;19.50;72.30;;;;;;5010019;28;93859;-45
2023/06/08 09:54:07;;;;;;;;;;;19.50;72.20;;;;;;5009552;28;92281;-47
2023/06/08 09:56:32;;;;;;;;;;;19.50;72.20;;;;;;5008153;28;92175;-45
2023/06/08 09:59:02;;;;;;;;;;;19.50;72.20;;;;;;5010305;28;92453;-46
2023/06/08 10:01:40;;;;;;;;;;;19.50;72.20;;;;;;5009585;28;93101;-46
2023/06/08 10:04:26;;;;;;;;;;;19.50;72.30;;;;;;5007540;28;92512;-45
2023/06/08 10:06:56;;;;;;;;;;;19.60;72.20;;;;;;5011192;28;92748;-46
2023/06/08 10:09:24;;;;;;;;;;;19.60;72.10;;;;;;5008540;28;91610;-46
2023/06/08 10:11:50;;;;;;;;;;;19.60;72.20;;;;;;5008355;28;92137;-46
2023/06/08 10:14:16;;;;;;;;;;;19.60;72.20;;;;;;5008170;28;93149;-46
2023/06/08 10:16:42;;;;;;;;;;;19.60;72.20;;;;;;5009713;28;93101;-46
2023/06/08 10:19:08;;;;;;;;;;;19.70;72.20;;;;;;5008927;28;93661;-46
2023/06/08 10:21:35;;;;;;;;;;;19.70;72.10;;;;;;5008489;28;93013;-46
2023/06/08 10:24:01;;;;;;;;;;;19.70;72.10;;;;;;5008278;28;92159;-46
2023/06/08 10:26:27;;;;;;;;;;;19.70;72.10;;;;;;5010745;28;92306;-45
2023/06/08 10:29:03;;;;;;;;;;;19.70;72.00;;;;;;5011541;28;93251;-45
2023/06/08 10:31:33;;;;;;;;;;;19.70;71.90;;;;;;5007900;28;92083;-46
2023/06/08 10:34:03;;;;;;;;;;;19.70;71.90;;;;;;5009212;28;92602;-46
2023/06/08 10:36:42;;;;;;;;;;;19.80;72.00;;;;;;5007284;28;92187;-46
2023/06/08 10:39:10;;;;;;;;;;;19.80;71.90;;;;;;5008049;28;92492;-45
2023/06/08 10:41:39;;;;;;;;;;;19.80;71.80;;;;;;5005395;28;95347;-46
2023/06/08 10:44:05;;;;;;;;;;;19.90;71.80;;;;;;5008626;28;92200;-46
2023/06/08 10:46:40;;;;;;;;;;;19.90;71.80;;;;;;5010041;28;92583;-45
2023/06/08 10:49:05;;;;;;;;;;;19.90;71.70;;;;;;5009197;28;93038;-46
2023/06/08 10:51:40;;;;;;;;;;;19.90;71.80;;;;;;5011825;28;92175;-46
2023/06/08 10:54:08;;;;;;;;;;;19.90;71.70;;;;;;5008201;28;93105;-46
2023/06/08 10:56:41;;;;;;;;;;;19.90;71.70;;;;;;5007730;28;92682;-46
2023/06/08 11:01:50;;;;;;;;;;;20.00;71.60;;;;;;5007541;28;92357;-46
2023/06/08 11:04:16;;;;;;;;;;;20.00;71.70;;;;;;5009002;28;92235;-47
2023/06/08 11:06:42;;;;;;;;;;;20.00;71.60;;;;;;5008923;28;93013;-46
2023/06/08 11:09:07;;;;;;;;;;;20.00;71.70;;;;;;5006590;28;92994;-47
2023/06/08 11:11:33;;;;;;;;;;;20.00;71.60;;;;;;5007932;28;92389;-46
2023/06/08 11:14:00;;;;;;;;;;;20.10;71.50;;;;;;5010981;28;92478;-46
2023/06/08 11:16:26;;;;;;;;;;;20.10;71.60;;;;;;5006675;28;92341;-46
2023/06/08 11:18:52;;;;;;;;;;;20.10;71.40;;;;;;5009209;28;92472;-46
2023/06/08 11:21:21;;;;;;;;;;;20.10;71.40;;;;;;5006934;28;93052;-46
2023/06/08 11:23:47;;;;;;;;;;;20.20;71.50;;;;;;5009360;28;91557;-46
2023/06/08 11:26:12;;;;;;;;;;;20.10;71.40;;;;;;5006780;28;92075;-46
2023/06/08 11:28:38;;;;;;;;;;;20.20;71.40;;;;;;5006581;28;93230;-46
2023/06/08 11:31:06;;;;;;;;;;;20.20;71.20;;;;;;5008464;28;93146;-46
2023/06/08 11:33:33;;;;;;;;;;;20.20;71.00;;;;;;5008295;28;93293;-47
2023/06/08 11:35:58;;;;;;;;;;;20.20;71.10;;;;;;5010770;28;92207;-48
2023/06/08 11:38:25;;;;;;;;;;;20.20;71.10;;;;;;5005961;28;92411;-47
2023/06/08 11:40:51;;;;;;;;;;;20.20;71.10;;;;;;5007179;28;93146;-46
2023/06/08 11:43:16;;;;;;;;;;;20.30;71.20;;;;;;5007960;28;92123;-47
2023/06/08 11:45:42;;;;;;;;;;;20.30;71.20;;;;;;4988252;28;92455;-47
2023/06/08 11:48:08;;;;;;;;;;;20.30;71.20;;;;;;5006702;28;92469;-47
2023/06/08 11:50:33;;;;;;;;;;;20.30;70.90;;;;;;5005249;28;92229;-46
2023/06/08 11:53:02;;;;;;;;;;;20.30;70.80;;;;;;5006579;28;92505;-46
2023/06/08 11:55:30;;;;;;;;;;;20.40;71.10;;;;;;5006937;28;93805;-46
2023/06/08 11:57:57;;;;;;;;;;;20.40;71.20;;;;;;5010149;28;92586;-45
2023/06/08 12:00:26;;;;;;;;;;;20.40;70.90;;;;;;5004990;28;95909;-46
2023/06/08 12:02:52;;;;;;;;;;;20.40;70.70;;;;;;5006963;28;92460;-46
2023/06/08 12:05:20;;;;;;;;;;;20.40;70.90;;;;;;5010187;28;94262;-46
2023/06/08 12:07:57;;;;;;;;;;;20.40;70.70;;;;;;5007514;28;93194;-47
2023/06/08 12:10:30;;;;;;;;;;;20.40;70.70;;;;;;5009405;28;92372;-45
2023/06/08 12:12:56;;;;;;;;;;;20.40;70.80;;;;;;5009309;28;91852;-46
2023/06/08 12:15:21;;;;;;;;;;;20.50;70.60;;;;;;5009923;28;93232;-46
2023/06/08 12:17:47;;;;;;;;;;;20.50;71.20;;;;;;5014242;28;92530;-45
2023/06/08 12:20:16;;;;;;;;;;;20.50;70.60;;;;;;5009811;28;93909;-47
2023/06/08 12:22:42;;;;;;;;;;;20.60;70.40;;;;;;5009707;28;92042;-46
2023/06/08 12:25:07;;;;;;;;;;;20.60;70.50;;;;;;5009483;28;92452;-47
2023/06/08 12:27:37;;;;;;;;;;;20.60;70.40;;;;;;5011082;28;93114;-46
2023/06/08 12:30:06;;;;;;;;;;;20.60;71.00;;;;;;5009873;28;92458;-46
2023/06/08 12:32:32;;;;;;;;;;;20.60;70.30;;;;;;5008375;28;92419;-46
2023/06/08 12:34:59;;;;;;;;;;;20.60;70.20;;;;;;5011001;28;93051;-46
2023/06/08 12:37:25;;;;;;;;;;;20.70;70.20;;;;;;5010424;28;91957;-46
2023/06/08 12:39:52;;;;;;;;;;;20.70;70.10;;;;;;5013354;28;92352;-46
2023/06/08 12:42:18;;;;;;;;;;;20.70;70.20;;;;;;5008594;28;92184;-46
2023/06/08 12:44:44;;;;;;;;;;;20.70;69.90;;;;;;5008755;28;93066;-46
2023/06/08 12:47:10;;;;;;;;;;;20.70;69.70;;;;;;5010080;28;93209;-46
2023/06/08 12:49:35;;;;;;;;;;;20.80;70.10;;;;;;5010701;28;92368;-46
2023/06/08 12:52:01;;;;;;;;;;;20.80;69.70;;;;;;5006950;28;92356;-45
2023/06/08 12:54:26;;;;;;;;;;;20.80;69.00;;;;;;4991476;28;96578;-47
2023/06/08 12:56:52;;;;;;;;;;;20.80;68.80;;;;;;5008555;28;92227;-46
2023/06/08 12:59:17;;;;;;;;;;;20.80;68.90;;;;;;5010492;28;92325;-47
2023/06/08 13:01:43;;;;;;;;;;;20.80;69.20;;;;;;5013137;28;92382;-47
2023/06/08 13:04:08;;;;;;;;;;;20.90;68.80;;;;;;5008395;28;92470;-46
2023/06/08 13:06:35;;;;;;;;;;;20.90;68.60;;;;;;5009288;28;92993;-46
2023/06/08 13:09:00;;;;;;;;;;;20.90;68.70;;;;;;5008248;28;93414;-46
2023/06/08 13:11:26;;;;;;;;;;;20.90;68.90;;;;;;5008509;28;93306;-47
2023/06/08 13:13:51;;;;;;;;;;;20.90;68.50;;;;;;5009530;28;93263;-49
2023/06/08 13:16:17;;;;;;;;;;;21.00;68.50;;;;;;5008174;28;92174;-46
2023/06/08 13:18:42;;;;;;;;;;;21.00;68.30;;;;;;5008919;28;92593;-46
2023/06/08 13:21:08;;;;;;;;;;;21.10;68.10;;;;;;5008127;28;93017;-46
2023/06/08 13:23:33;;;;;;;;;;;21.10;67.90;;;;;;5013463;28;92144;-47
2023/06/08 13:25:59;;;;;;;;;;;21.10;67.90;;;;;;5009232;28;91527;-46
2023/06/08 13:28:25;;;;;;;;;;;21.20;67.70;;;;;;5007399;28;93092;-45
2023/06/08 13:30:50;;;;;;;;;;;21.20;68.00;;;;;;5010660;28;92885;-46
2023/06/08 13:33:16;;;;;;;;;;;21.20;67.90;;;;;;5006995;28;93667;-47
2023/06/08 13:35:43;;;;;;;;;;;21.20;68.00;;;;;;5008742;28;92264;-47
2023/06/08 13:38:09;;;;;;;;;;;21.30;68.10;;;;;;5006768;28;92443;-47
2023/06/08 13:40:36;;;;;;;;;;;21.30;67.80;;;;;;5008409;28;93000;-46
2023/06/08 13:43:02;;;;;;;;;;;21.30;68.00;;;;;;5009023;28;92217;-47
2023/06/08 13:45:28;;;;;;;;;;;21.30;67.40;;;;;;5010012;28;92184;-46
2023/06/08 13:47:54;;;;;;;;;;;21.40;67.80;;;;;;5009447;28;92039;-46
2023/06/08 13:50:20;;;;;;;;;;;21.40;68.10;;;;;;5010772;28;92387;-46
2023/06/08 13:52:46;;;;;;;;;;;21.40;67.90;;;;;;5006844;28;93087;-46
2023/06/08 13:55:11;;;;;;;;;;;21.40;68.20;;;;;;5011278;28;92231;-46
2023/06/08 13:57:37;;;;;;;;;;;21.40;68.40;;;;;;5008386;28;93097;-46
2023/06/08 14:00:04;;;;;;;;;;;21.40;68.20;;;;;;5007642;28;93255;-46
2023/06/08 14:02:30;;;;;;;;;;;21.40;68.20;;;;;;5010495;28;92373;-46
2023/06/08 14:04:56;;;;;;;;;;;21.40;68.30;;;;;;5007662;28;92415;-46
2023/06/08 14:07:21;;;;;;;;;;;21.40;68.60;;;;;;5012899;28;93719;-46
2023/06/08 14:09:47;;;;;;;;;;;21.40;68.60;;;;;;5006761;28;92314;-46
2023/06/08 14:12:14;;;;;;;;;;;21.40;68.60;;;;;;5008447;28;92698;-46
2023/06/08 14:14:39;;;;;;;;;;;21.40;68.70;;;;;;5008171;28;91377;-46
2023/06/08 14:17:05;;;;;;;;;;;21.50;68.70;;;;;;5006986;28;92083;-46